sensor_id;sensor_type;location;lat;lon;timestamp;P1;durP1;ratioP1;P2;durP2;ratioP2
49296;SDS011;35163;48.878;18.040;2022-10-19T00:01:05;34.53;;;15.88;;
49296;SDS011;35163;48.878;18.040;2022-10-19T00:03:34;28.52;;;14.85;;
49296;SDS011;35163;48.878;18.040;2022-10-19T00:06:12;23.58;;;14.35;;
49296;SDS011;35163;48.878;18.040;2022-10-19T00:08:38;34.65;;;14.48;;
49296;SDS011;35163;48.878;18.040;2022-10-19T00:11:05;24.85;;;14.18;;
49296;SDS011;35163;48.878;18.040;2022-10-19T00:13:32;26.08;;;15.48;;
49296;SDS011;35163;48.878;18.040;2022-10-19T00:15:59;24.77;;;15.45;;
49296;SDS011;35163;48.878;18.040;2022-10-19T00:18:25;27.83;;;15.02;;
49296;SDS011;35163;48.878;18.040;2022-10-19T00:20:52;28.02;;;15.05;;
49296;SDS011;35163;48.878;18.040;2022-10-19T00:25:54;26.10;;;12.95;;
49296;SDS011;35163;48.878;18.040;2022-10-19T00:28:21;21.52;;;14.43;;
49296;SDS011;35163;48.878;18.040;2022-10-19T00:30:48;31.08;;;15.07;;
49296;SDS011;35163;48.878;18.040;2022-10-19T00:33:19;30.13;;;16.83;;
49296;SDS011;35163;48.878;18.040;2022-10-19T00:35:48;27.50;;;15.82;;
49296;SDS011;35163;48.878;18.040;2022-10-19T00:38:16;32.00;;;18.42;;
49296;SDS011;35163;48.878;18.040;2022-10-19T00:40:44;30.95;;;18.05;;
49296;SDS011;35163;48.878;18.040;2022-10-19T00:43:13;32.45;;;17.80;;
49296;SDS011;35163;48.878;18.040;2022-10-19T00:45:41;29.40;;;17.95;;
49296;SDS011;35163;48.878;18.040;2022-10-19T00:48:08;29.75;;;17.08;;
49296;SDS011;35163;48.878;18.040;2022-10-19T00:50:38;35.30;;;18.77;;
49296;SDS011;35163;48.878;18.040;2022-10-19T00:53:05;32.50;;;19.55;;
49296;SDS011;35163;48.878;18.040;2022-10-19T00:55:32;31.98;;;18.33;;
49296;SDS011;35163;48.878;18.040;2022-10-19T00:57:59;31.88;;;18.85;;
49296;SDS011;35163;48.878;18.040;2022-10-19T01:00:28;29.63;;;18.17;;
49296;SDS011;35163;48.878;18.040;2022-10-19T01:02:55;37.53;;;18.13;;
49296;SDS011;35163;48.878;18.040;2022-10-19T01:05:24;28.20;;;16.63;;
49296;SDS011;35163;48.878;18.040;2022-10-19T01:07:51;31.88;;;16.80;;
49296;SDS011;35163;48.878;18.040;2022-10-19T01:10:19;26.33;;;16.27;;
49296;SDS011;35163;48.878;18.040;2022-10-19T01:12:58;30.00;;;15.30;;
49296;SDS011;35163;48.878;18.040;2022-10-19T01:18:36;27.88;;;16.40;;
49296;SDS011;35163;48.878;18.040;2022-10-19T01:21:16;25.00;;;15.02;;
49296;SDS011;35163;48.878;18.040;2022-10-19T01:35:08;25.88;;;14.55;;
49296;SDS011;35163;48.878;18.040;2022-10-19T01:40:29;24.00;;;15.88;;
49296;SDS011;35163;48.878;18.040;2022-10-19T01:43:12;24.48;;;14.65;;
49296;SDS011;35163;48.878;18.040;2022-10-19T01:48:30;31.08;;;16.70;;
49296;SDS011;35163;48.878;18.040;2022-10-19T01:51:02;24.25;;;15.38;;
49296;SDS011;35163;48.878;18.040;2022-10-19T01:53:33;31.67;;;16.65;;
49296;SDS011;35163;48.878;18.040;2022-10-19T01:56:05;28.88;;;17.05;;
49296;SDS011;35163;48.878;18.040;2022-10-19T01:58:34;27.65;;;17.73;;
49296;SDS011;35163;48.878;18.040;2022-10-19T02:01:04;28.73;;;17.15;;
49296;SDS011;35163;48.878;18.040;2022-10-19T02:03:34;28.08;;;17.70;;
49296;SDS011;35163;48.878;18.040;2022-10-19T02:06:02;30.65;;;17.70;;
49296;SDS011;35163;48.878;18.040;2022-10-19T02:08:50;34.83;;;18.92;;
49296;SDS011;35163;48.878;18.040;2022-10-19T02:11:18;31.05;;;17.95;;
49296;SDS011;35163;48.878;18.040;2022-10-19T02:13:57;26.45;;;16.80;;
49296;SDS011;35163;48.878;18.040;2022-10-19T02:16:32;31.77;;;17.25;;
49296;SDS011;35163;48.878;18.040;2022-10-19T02:19:03;31.52;;;19.35;;
49296;SDS011;35163;48.878;18.040;2022-10-19T02:21:33;27.23;;;17.48;;
49296;SDS011;35163;48.878;18.040;2022-10-19T02:24:00;27.60;;;15.98;;
49296;SDS011;35163;48.878;18.040;2022-10-19T02:26:27;28.60;;;17.30;;
49296;SDS011;35163;48.878;18.040;2022-10-19T02:28:54;34.85;;;18.00;;
49296;SDS011;35163;48.878;18.040;2022-10-19T02:31:21;26.80;;;15.57;;
49296;SDS011;35163;48.878;18.040;2022-10-19T02:33:49;25.48;;;16.60;;
49296;SDS011;35163;48.878;18.040;2022-10-19T02:36:16;23.98;;;14.55;;
49296;SDS011;35163;48.878;18.040;2022-10-19T02:38:43;25.17;;;15.75;;
49296;SDS011;35163;48.878;18.040;2022-10-19T02:41:15;28.17;;;16.15;;
49296;SDS011;35163;48.878;18.040;2022-10-19T02:43:48;23.42;;;14.43;;
49296;SDS011;35163;48.878;18.040;2022-10-19T02:46:53;31.52;;;17.58;;
49296;SDS011;35163;48.878;18.040;2022-10-19T02:49:14;37.45;;;19.10;;
49296;SDS011;35163;48.878;18.040;2022-10-19T02:51:58;31.92;;;18.70;;
49296;SDS011;35163;48.878;18.040;2022-10-19T02:54:27;33.88;;;20.23;;
49296;SDS011;35163;48.878;18.040;2022-10-19T02:56:54;30.45;;;18.25;;
49296;SDS011;35163;48.878;18.040;2022-10-19T02:59:21;33.95;;;19.77;;
49296;SDS011;35163;48.878;18.040;2022-10-19T03:01:49;30.42;;;18.63;;
49296;SDS011;35163;48.878;18.040;2022-10-19T03:04:16;30.85;;;19.15;;
49296;SDS011;35163;48.878;18.040;2022-10-19T03:06:42;34.58;;;20.85;;
49296;SDS011;35163;48.878;18.040;2022-10-19T03:09:09;30.33;;;18.63;;
49296;SDS011;35163;48.878;18.040;2022-10-19T03:11:36;26.10;;;17.17;;
49296;SDS011;35163;48.878;18.040;2022-10-19T03:14:02;29.73;;;17.52;;
49296;SDS011;35163;48.878;18.040;2022-10-19T03:16:29;29.45;;;18.77;;
49296;SDS011;35163;48.878;18.040;2022-10-19T03:18:55;27.58;;;16.90;;
49296;SDS011;35163;48.878;18.040;2022-10-19T03:21:22;26.63;;;15.23;;
49296;SDS011;35163;48.878;18.040;2022-10-19T03:23:49;23.30;;;14.50;;
49296;SDS011;35163;48.878;18.040;2022-10-19T03:26:16;23.45;;;14.15;;
49296;SDS011;35163;48.878;18.040;2022-10-19T03:28:43;24.77;;;14.02;;
49296;SDS011;35163;48.878;18.040;2022-10-19T03:31:09;23.15;;;13.38;;
49296;SDS011;35163;48.878;18.040;2022-10-19T03:33:37;23.33;;;13.70;;
49296;SDS011;35163;48.878;18.040;2022-10-19T03:38:49;21.27;;;12.75;;
49296;SDS011;35163;48.878;18.040;2022-10-19T03:41:17;22.38;;;13.13;;
49296;SDS011;35163;48.878;18.040;2022-10-19T03:43:45;26.25;;;13.80;;
49296;SDS011;35163;48.878;18.040;2022-10-19T03:46:11;22.70;;;12.45;;
49296;SDS011;35163;48.878;18.040;2022-10-19T03:48:38;21.25;;;12.68;;
49296;SDS011;35163;48.878;18.040;2022-10-19T03:51:06;19.85;;;11.77;;
49296;SDS011;35163;48.878;18.040;2022-10-19T03:53:34;18.70;;;11.30;;
49296;SDS011;35163;48.878;18.040;2022-10-19T03:56:03;16.83;;;10.60;;
49296;SDS011;35163;48.878;18.040;2022-10-19T03:58:40;20.95;;;11.60;;
49296;SDS011;35163;48.878;18.040;2022-10-19T04:01:09;16.88;;;10.57;;
49296;SDS011;35163;48.878;18.040;2022-10-19T04:03:37;16.05;;;10.02;;
49296;SDS011;35163;48.878;18.040;2022-10-19T04:06:05;19.52;;;10.52;;
49296;SDS011;35163;48.878;18.040;2022-10-19T04:08:51;18.83;;;11.60;;
49296;SDS011;35163;48.878;18.040;2022-10-19T04:11:23;18.45;;;10.75;;
49296;SDS011;35163;48.878;18.040;2022-10-19T04:13:52;20.05;;;10.38;;
49296;SDS011;35163;48.878;18.040;2022-10-19T04:16:20;18.27;;;9.48;;
49296;SDS011;35163;48.878;18.040;2022-10-19T04:18:48;15.75;;;10.05;;
49296;SDS011;35163;48.878;18.040;2022-10-19T04:21:25;17.33;;;9.75;;
49296;SDS011;35163;48.878;18.040;2022-10-19T04:23:56;16.20;;;10.05;;
49296;SDS011;35163;48.878;18.040;2022-10-19T04:26:26;16.83;;;9.27;;
49296;SDS011;35163;48.878;18.040;2022-10-19T04:28:55;15.98;;;9.43;;
49296;SDS011;35163;48.878;18.040;2022-10-19T04:31:23;18.67;;;10.00;;
49296;SDS011;35163;48.878;18.040;2022-10-19T04:33:50;18.80;;;10.07;;
49296;SDS011;35163;48.878;18.040;2022-10-19T04:36:16;20.27;;;10.43;;
49296;SDS011;35163;48.878;18.040;2022-10-19T04:38:43;17.25;;;10.38;;
49296;SDS011;35163;48.878;18.040;2022-10-19T04:41:11;17.35;;;10.82;;
49296;SDS011;35163;48.878;18.040;2022-10-19T04:43:39;18.33;;;10.30;;
49296;SDS011;35163;48.878;18.040;2022-10-19T04:46:10;17.40;;;9.60;;
49296;SDS011;35163;48.878;18.040;2022-10-19T04:48:39;20.73;;;11.65;;
49296;SDS011;35163;48.878;18.040;2022-10-19T04:51:07;18.33;;;10.68;;
49296;SDS011;35163;48.878;18.040;2022-10-19T04:53:35;15.43;;;9.68;;
49296;SDS011;35163;48.878;18.040;2022-10-19T04:56:04;19.60;;;11.20;;
49296;SDS011;35163;48.878;18.040;2022-10-19T04:58:32;19.23;;;11.27;;
49296;SDS011;35163;48.878;18.040;2022-10-19T05:01:05;19.40;;;11.07;;
49296;SDS011;35163;48.878;18.040;2022-10-19T05:03:33;16.80;;;10.25;;
49296;SDS011;35163;48.878;18.040;2022-10-19T05:05:59;21.05;;;11.95;;
49296;SDS011;35163;48.878;18.040;2022-10-19T05:08:26;20.70;;;11.48;;
49296;SDS011;35163;48.878;18.040;2022-10-19T05:10:52;19.90;;;11.63;;
49296;SDS011;35163;48.878;18.040;2022-10-19T05:13:19;21.38;;;12.48;;
49296;SDS011;35163;48.878;18.040;2022-10-19T05:15:55;23.50;;;13.70;;
49296;SDS011;35163;48.878;18.040;2022-10-19T05:18:23;23.48;;;13.63;;
49296;SDS011;35163;48.878;18.040;2022-10-19T05:20:50;21.90;;;13.52;;
49296;SDS011;35163;48.878;18.040;2022-10-19T05:23:16;21.67;;;11.82;;
49296;SDS011;35163;48.878;18.040;2022-10-19T05:25:43;26.45;;;12.35;;
49296;SDS011;35163;48.878;18.040;2022-10-19T05:28:10;29.48;;;13.38;;
49296;SDS011;35163;48.878;18.040;2022-10-19T05:30:36;28.35;;;12.95;;
49296;SDS011;35163;48.878;18.040;2022-10-19T05:33:04;21.67;;;12.82;;
49296;SDS011;35163;48.878;18.040;2022-10-19T05:35:31;20.48;;;12.20;;
49296;SDS011;35163;48.878;18.040;2022-10-19T05:37:57;21.42;;;12.45;;
49296;SDS011;35163;48.878;18.040;2022-10-19T05:40:24;24.27;;;13.65;;
49296;SDS011;35163;48.878;18.040;2022-10-19T05:42:50;21.75;;;11.52;;
49296;SDS011;35163;48.878;18.040;2022-10-19T05:45:17;22.35;;;13.23;;
49296;SDS011;35163;48.878;18.040;2022-10-19T05:47:43;24.95;;;11.10;;
49296;SDS011;35163;48.878;18.040;2022-10-19T05:50:10;15.88;;;8.90;;
49296;SDS011;35163;48.878;18.040;2022-10-19T05:52:36;18.90;;;10.07;;
49296;SDS011;35163;48.878;18.040;2022-10-19T05:55:03;19.67;;;9.77;;
49296;SDS011;35163;48.878;18.040;2022-10-19T05:57:30;16.38;;;9.60;;
49296;SDS011;35163;48.878;18.040;2022-10-19T05:59:58;20.17;;;10.75;;
49296;SDS011;35163;48.878;18.040;2022-10-19T06:02:25;17.52;;;10.02;;
49296;SDS011;35163;48.878;18.040;2022-10-19T06:04:51;17.55;;;9.68;;
49296;SDS011;35163;48.878;18.040;2022-10-19T06:07:18;16.27;;;9.85;;
49296;SDS011;35163;48.878;18.040;2022-10-19T06:09:44;15.75;;;9.93;;
49296;SDS011;35163;48.878;18.040;2022-10-19T06:12:11;18.30;;;9.50;;
49296;SDS011;35163;48.878;18.040;2022-10-19T06:14:39;17.35;;;9.32;;
49296;SDS011;35163;48.878;18.040;2022-10-19T06:17:07;15.80;;;8.70;;
49296;SDS011;35163;48.878;18.040;2022-10-19T06:19:34;14.02;;;7.93;;
49296;SDS011;35163;48.878;18.040;2022-10-19T06:22:01;14.45;;;8.48;;
49296;SDS011;35163;48.878;18.040;2022-10-19T06:24:27;19.45;;;10.65;;
49296;SDS011;35163;48.878;18.040;2022-10-19T06:26:54;18.25;;;8.80;;
49296;SDS011;35163;48.878;18.040;2022-10-19T06:29:21;18.70;;;9.82;;
49296;SDS011;35163;48.878;18.040;2022-10-19T06:31:47;15.20;;;8.95;;
49296;SDS011;35163;48.878;18.040;2022-10-19T06:34:14;15.43;;;9.23;;
49296;SDS011;35163;48.878;18.040;2022-10-19T06:36:40;14.70;;;8.25;;
49296;SDS011;35163;48.878;18.040;2022-10-19T06:39:07;16.40;;;8.98;;
49296;SDS011;35163;48.878;18.040;2022-10-19T06:41:34;17.45;;;10.02;;
49296;SDS011;35163;48.878;18.040;2022-10-19T06:44:01;15.50;;;8.55;;
49296;SDS011;35163;48.878;18.040;2022-10-19T06:46:27;15.63;;;9.35;;
49296;SDS011;35163;48.878;18.040;2022-10-19T06:48:58;16.23;;;9.40;;
49296;SDS011;35163;48.878;18.040;2022-10-19T06:51:27;15.15;;;8.48;;
49296;SDS011;35163;48.878;18.040;2022-10-19T06:53:55;15.07;;;8.10;;
49296;SDS011;35163;48.878;18.040;2022-10-19T06:56:23;12.20;;;6.80;;
49296;SDS011;35163;48.878;18.040;2022-10-19T06:58:50;12.52;;;6.32;;
49296;SDS011;35163;48.878;18.040;2022-10-19T07:01:17;10.80;;;6.28;;
49296;SDS011;35163;48.878;18.040;2022-10-19T07:03:43;11.90;;;6.80;;
49296;SDS011;35163;48.878;18.040;2022-10-19T07:06:11;12.93;;;7.15;;
49296;SDS011;35163;48.878;18.040;2022-10-19T07:08:39;13.48;;;7.68;;
49296;SDS011;35163;48.878;18.040;2022-10-19T07:11:08;12.75;;;6.85;;
49296;SDS011;35163;48.878;18.040;2022-10-19T07:16:09;17.13;;;9.32;;
49296;SDS011;35163;48.878;18.040;2022-10-19T07:18:45;16.92;;;8.55;;
49296;SDS011;35163;48.878;18.040;2022-10-19T07:21:13;12.82;;;8.07;;
49296;SDS011;35163;48.878;18.040;2022-10-19T07:23:41;14.32;;;7.93;;
49296;SDS011;35163;48.878;18.040;2022-10-19T07:26:14;14.43;;;8.18;;
49296;SDS011;35163;48.878;18.040;2022-10-19T07:28:49;13.45;;;7.68;;
49296;SDS011;35163;48.878;18.040;2022-10-19T07:31:18;14.27;;;8.35;;
49296;SDS011;35163;48.878;18.040;2022-10-19T07:33:46;13.80;;;7.70;;
49296;SDS011;35163;48.878;18.040;2022-10-19T07:36:17;13.98;;;7.97;;
49296;SDS011;35163;48.878;18.040;2022-10-19T07:38:43;17.80;;;9.07;;
49296;SDS011;35163;48.878;18.040;2022-10-19T07:41:13;19.73;;;9.90;;
49296;SDS011;35163;48.878;18.040;2022-10-19T07:43:42;20.15;;;12.18;;
49296;SDS011;35163;48.878;18.040;2022-10-19T07:46:14;17.15;;;9.85;;
49296;SDS011;35163;48.878;18.040;2022-10-19T07:48:45;17.30;;;8.50;;
49296;SDS011;35163;48.878;18.040;2022-10-19T07:51:13;15.80;;;7.97;;
49296;SDS011;35163;48.878;18.040;2022-10-19T07:53:41;14.50;;;8.10;;
49296;SDS011;35163;48.878;18.040;2022-10-19T07:56:16;13.38;;;7.55;;
49296;SDS011;35163;48.878;18.040;2022-10-19T07:58:44;20.92;;;7.60;;
49296;SDS011;35163;48.878;18.040;2022-10-19T08:01:12;16.17;;;8.70;;
49296;SDS011;35163;48.878;18.040;2022-10-19T08:03:40;15.65;;;8.73;;
49296;SDS011;35163;48.878;18.040;2022-10-19T08:06:28;14.95;;;8.20;;
49296;SDS011;35163;48.878;18.040;2022-10-19T08:08:54;16.33;;;9.80;;
49296;SDS011;35163;48.878;18.040;2022-10-19T08:11:23;13.68;;;7.47;;
49296;SDS011;35163;48.878;18.040;2022-10-19T08:13:51;12.13;;;6.43;;
49296;SDS011;35163;48.878;18.040;2022-10-19T08:16:20;10.80;;;5.45;;
49296;SDS011;35163;48.878;18.040;2022-10-19T08:18:50;12.52;;;6.07;;
49296;SDS011;35163;48.878;18.040;2022-10-19T08:21:18;9.30;;;5.13;;
49296;SDS011;35163;48.878;18.040;2022-10-19T08:23:44;12.30;;;5.53;;
49296;SDS011;35163;48.878;18.040;2022-10-19T08:26:11;10.68;;;5.45;;
49296;SDS011;35163;48.878;18.040;2022-10-19T08:28:38;10.30;;;5.82;;
49296;SDS011;35163;48.878;18.040;2022-10-19T08:31:08;12.90;;;6.25;;
49296;SDS011;35163;48.878;18.040;2022-10-19T08:33:48;12.68;;;6.20;;
49296;SDS011;35163;48.878;18.040;2022-10-19T08:36:16;14.85;;;5.47;;
49296;SDS011;35163;48.878;18.040;2022-10-19T08:38:44;13.20;;;5.57;;
49296;SDS011;35163;48.878;18.040;2022-10-19T08:46:43;11.77;;;6.03;;
49296;SDS011;35163;48.878;18.040;2022-10-19T08:49:33;10.52;;;5.35;;
49296;SDS011;35163;48.878;18.040;2022-10-19T08:52:03;9.95;;;5.20;;
49296;SDS011;35163;48.878;18.040;2022-10-19T08:54:38;10.57;;;5.10;;
49296;SDS011;35163;48.878;18.040;2022-10-19T08:57:30;12.43;;;4.50;;
49296;SDS011;35163;48.878;18.040;2022-10-19T09:00:06;9.73;;;4.95;;
49296;SDS011;35163;48.878;18.040;2022-10-19T09:05:38;10.32;;;4.78;;
49296;SDS011;35163;48.878;18.040;2022-10-19T09:08:18;11.90;;;4.68;;
49296;SDS011;35163;48.878;18.040;2022-10-19T09:10:46;8.40;;;4.22;;
49296;SDS011;35163;48.878;18.040;2022-10-19T09:16:27;13.35;;;5.15;;
49296;SDS011;35163;48.878;18.040;2022-10-19T09:18:54;12.23;;;4.40;;
49296;SDS011;35163;48.878;18.040;2022-10-19T09:21:22;10.13;;;4.70;;
49296;SDS011;35163;48.878;18.040;2022-10-19T09:26:51;8.68;;;3.92;;
49296;SDS011;35163;48.878;18.040;2022-10-19T09:29:26;9.38;;;4.20;;
49296;SDS011;35163;48.878;18.040;2022-10-19T09:31:54;14.35;;;4.90;;
49296;SDS011;35163;48.878;18.040;2022-10-19T09:34:30;10.07;;;4.30;;
49296;SDS011;35163;48.878;18.040;2022-10-19T09:37:01;9.88;;;4.18;;
49296;SDS011;35163;48.878;18.040;2022-10-19T09:39:31;8.93;;;4.40;;
49296;SDS011;35163;48.878;18.040;2022-10-19T09:44:26;8.20;;;4.25;;
49296;SDS011;35163;48.878;18.040;2022-10-19T09:49:43;8.57;;;4.38;;
49296;SDS011;35163;48.878;18.040;2022-10-19T09:52:58;7.78;;;3.95;;
49296;SDS011;35163;48.878;18.040;2022-10-19T09:57:43;11.00;;;4.28;;
49296;SDS011;35163;48.878;18.040;2022-10-19T10:00:24;8.07;;;3.75;;
49296;SDS011;35163;48.878;18.040;2022-10-19T10:02:56;10.43;;;4.05;;
49296;SDS011;35163;48.878;18.040;2022-10-19T10:07:59;7.78;;;3.72;;
49296;SDS011;35163;48.878;18.040;2022-10-19T10:10:27;8.85;;;3.90;;
49296;SDS011;35163;48.878;18.040;2022-10-19T10:13:04;9.50;;;4.35;;
49296;SDS011;35163;48.878;18.040;2022-10-19T10:15:39;7.25;;;3.40;;
49296;SDS011;35163;48.878;18.040;2022-10-19T10:18:12;5.80;;;3.47;;
49296;SDS011;35163;48.878;18.040;2022-10-19T10:20:57;7.35;;;3.85;;
49296;SDS011;35163;48.878;18.040;2022-10-19T10:23:25;7.25;;;3.47;;
49296;SDS011;35163;48.878;18.040;2022-10-19T10:25:55;6.93;;;3.53;;
49296;SDS011;35163;48.878;18.040;2022-10-19T10:28:24;6.55;;;3.28;;
49296;SDS011;35163;48.878;18.040;2022-10-19T10:31:05;6.63;;;3.60;;
49296;SDS011;35163;48.878;18.040;2022-10-19T10:33:34;8.75;;;3.28;;
49296;SDS011;35163;48.878;18.040;2022-10-19T10:36:10;10.68;;;3.97;;
49296;SDS011;35163;48.878;18.040;2022-10-19T10:38:40;9.75;;;3.55;;
49296;SDS011;35163;48.878;18.040;2022-10-19T10:41:14;7.68;;;3.40;;
49296;SDS011;35163;48.878;18.040;2022-10-19T10:43:51;8.70;;;3.75;;
49296;SDS011;35163;48.878;18.040;2022-10-19T10:46:23;8.85;;;3.92;;
49296;SDS011;35163;48.878;18.040;2022-10-19T10:49:06;9.02;;;4.03;;
49296;SDS011;35163;48.878;18.040;2022-10-19T10:51:46;9.57;;;4.07;;
49296;SDS011;35163;48.878;18.040;2022-10-19T10:54:20;10.52;;;4.82;;
49296;SDS011;35163;48.878;18.040;2022-10-19T10:57:22;13.82;;;3.92;;
49296;SDS011;35163;48.878;18.040;2022-10-19T11:00:05;10.88;;;3.75;;
49296;SDS011;35163;48.878;18.040;2022-10-19T11:07:57;7.18;;;3.17;;
49296;SDS011;35163;48.878;18.040;2022-10-19T11:13:16;7.95;;;3.25;;
49296;SDS011;35163;48.878;18.040;2022-10-19T11:15:53;6.35;;;3.35;;
49296;SDS011;35163;48.878;18.040;2022-10-19T11:18:24;6.65;;;3.08;;
49296;SDS011;35163;48.878;18.040;2022-10-19T11:23:52;7.70;;;3.08;;
49296;SDS011;35163;48.878;18.040;2022-10-19T11:26:34;6.93;;;3.22;;
49296;SDS011;35163;48.878;18.040;2022-10-19T11:29:26;7.35;;;3.10;;
49296;SDS011;35163;48.878;18.040;2022-10-19T11:32:03;5.63;;;2.60;;
49296;SDS011;35163;48.878;18.040;2022-10-19T11:37:53;9.63;;;3.33;;
49296;SDS011;35163;48.878;18.040;2022-10-19T11:43:36;10.07;;;3.40;;
49296;SDS011;35163;48.878;18.040;2022-10-19T11:46:08;10.55;;;3.42;;
49296;SDS011;35163;48.878;18.040;2022-10-19T12:09:45;7.57;;;3.50;;
49296;SDS011;35163;48.878;18.040;2022-10-19T12:12:31;7.43;;;3.65;;
49296;SDS011;35163;48.878;18.040;2022-10-19T12:15:21;8.90;;;3.67;;
49296;SDS011;35163;48.878;18.040;2022-10-19T12:17:51;10.13;;;3.67;;
49296;SDS011;35163;48.878;18.040;2022-10-19T12:20:34;9.32;;;3.50;;
49296;SDS011;35163;48.878;18.040;2022-10-19T12:23:16;11.23;;;3.35;;
49296;SDS011;35163;48.878;18.040;2022-10-19T12:25:51;9.35;;;3.85;;
49296;SDS011;35163;48.878;18.040;2022-10-19T12:28:21;10.70;;;3.78;;
49296;SDS011;35163;48.878;18.040;2022-10-19T12:30:53;11.02;;;3.67;;
49296;SDS011;35163;48.878;18.040;2022-10-19T12:33:32;15.98;;;4.10;;
49296;SDS011;35163;48.878;18.040;2022-10-19T12:38:38;8.27;;;4.03;;
49296;SDS011;35163;48.878;18.040;2022-10-19T12:41:25;6.65;;;3.40;;
49296;SDS011;35163;48.878;18.040;2022-10-19T12:46:34;9.98;;;3.63;;
49296;SDS011;35163;48.878;18.040;2022-10-19T12:51:52;8.90;;;3.60;;
49296;SDS011;35163;48.878;18.040;2022-10-19T12:54:23;9.05;;;3.50;;
49296;SDS011;35163;48.878;18.040;2022-10-19T12:56:51;8.60;;;3.20;;
49296;SDS011;35163;48.878;18.040;2022-10-19T12:59:31;7.60;;;2.75;;
49296;SDS011;35163;48.878;18.040;2022-10-19T13:02:00;10.07;;;3.58;;
49296;SDS011;35163;48.878;18.040;2022-10-19T13:04:31;8.90;;;3.63;;
49296;SDS011;35163;48.878;18.040;2022-10-19T13:07:00;14.20;;;3.72;;
49296;SDS011;35163;48.878;18.040;2022-10-19T13:09:36;12.00;;;3.92;;
49296;SDS011;35163;48.878;18.040;2022-10-19T13:14:58;10.20;;;3.70;;
49296;SDS011;35163;48.878;18.040;2022-10-19T13:27:50;10.50;;;3.90;;
49296;SDS011;35163;48.878;18.040;2022-10-19T13:34:01;6.38;;;3.15;;
49296;SDS011;35163;48.878;18.040;2022-10-19T13:41:17;10.65;;;3.63;;
49296;SDS011;35163;48.878;18.040;2022-10-19T13:44:03;10.40;;;3.80;;
49296;SDS011;35163;48.878;18.040;2022-10-19T14:00:31;12.15;;;3.70;;
49296;SDS011;35163;48.878;18.040;2022-10-19T14:11:51;4.85;;;2.35;;
49296;SDS011;35163;48.878;18.040;2022-10-19T14:14:21;9.50;;;2.60;;
49296;SDS011;35163;48.878;18.040;2022-10-19T14:19:40;6.35;;;2.50;;
49296;SDS011;35163;48.878;18.040;2022-10-19T14:25:16;4.93;;;2.28;;
49296;SDS011;35163;48.878;18.040;2022-10-19T14:27:47;9.38;;;2.20;;
49296;SDS011;35163;48.878;18.040;2022-10-19T14:30:20;5.82;;;2.53;;
49296;SDS011;35163;48.878;18.040;2022-10-19T14:32:46;5.25;;;2.20;;
49296;SDS011;35163;48.878;18.040;2022-10-19T14:35:26;10.10;;;2.22;;
49296;SDS011;35163;48.878;18.040;2022-10-19T14:37:56;7.40;;;2.20;;
49296;SDS011;35163;48.878;18.040;2022-10-19T14:40:25;4.70;;;2.38;;
49296;SDS011;35163;48.878;18.040;2022-10-19T14:42:54;7.80;;;2.10;;
49296;SDS011;35163;48.878;18.040;2022-10-19T14:45:23;6.95;;;2.03;;
49296;SDS011;35163;48.878;18.040;2022-10-19T14:48:14;11.70;;;2.03;;
49296;SDS011;35163;48.878;18.040;2022-10-19T14:56:23;6.72;;;1.83;;
49296;SDS011;35163;48.878;18.040;2022-10-19T14:58:58;3.15;;;1.33;;
49296;SDS011;35163;48.878;18.040;2022-10-19T15:01:28;5.80;;;2.03;;
49296;SDS011;35163;48.878;18.040;2022-10-19T15:03:55;6.78;;;2.17;;
49296;SDS011;35163;48.878;18.040;2022-10-19T15:06:26;8.23;;;1.77;;
49296;SDS011;35163;48.878;18.040;2022-10-19T15:08:59;13.60;;;2.10;;
49296;SDS011;35163;48.878;18.040;2022-10-19T15:11:30;6.05;;;1.88;;
49296;SDS011;35163;48.878;18.040;2022-10-19T15:14:16;5.45;;;1.60;;
49296;SDS011;35163;48.878;18.040;2022-10-19T15:24:38;7.75;;;1.70;;
49296;SDS011;35163;48.878;18.040;2022-10-19T15:27:15;7.22;;;1.67;;
49296;SDS011;35163;48.878;18.040;2022-10-19T15:29:57;7.43;;;1.73;;
49296;SDS011;35163;48.878;18.040;2022-10-19T15:32:28;7.05;;;1.52;;
49296;SDS011;35163;48.878;18.040;2022-10-19T15:35:10;6.45;;;1.17;;
49296;SDS011;35163;48.878;18.040;2022-10-19T15:37:44;7.68;;;2.92;;
49296;SDS011;35163;48.878;18.040;2022-10-19T15:40:18;4.70;;;2.20;;
49296;SDS011;35163;48.878;18.040;2022-10-19T15:42:54;5.15;;;1.90;;
49296;SDS011;35163;48.878;18.040;2022-10-19T15:45:37;4.82;;;1.67;;
49296;SDS011;35163;48.878;18.040;2022-10-19T15:50:37;4.03;;;1.75;;
49296;SDS011;35163;48.878;18.040;2022-10-19T15:53:08;3.38;;;1.50;;
49296;SDS011;35163;48.878;18.040;2022-10-19T15:55:35;6.20;;;2.25;;
49296;SDS011;35163;48.878;18.040;2022-10-19T15:58:02;6.22;;;2.10;;
49296;SDS011;35163;48.878;18.040;2022-10-19T16:00:29;8.20;;;2.03;;
49296;SDS011;35163;48.878;18.040;2022-10-19T16:02:56;5.28;;;2.42;;
49296;SDS011;35163;48.878;18.040;2022-10-19T16:05:22;7.13;;;1.65;;
49296;SDS011;35163;48.878;18.040;2022-10-19T16:07:49;4.90;;;1.48;;
49296;SDS011;35163;48.878;18.040;2022-10-19T16:10:17;4.05;;;1.50;;
49296;SDS011;35163;48.878;18.040;2022-10-19T16:12:47;8.23;;;1.67;;
49296;SDS011;35163;48.878;18.040;2022-10-19T16:15:14;4.15;;;1.60;;
49296;SDS011;35163;48.878;18.040;2022-10-19T16:17:48;6.18;;;1.80;;
49296;SDS011;35163;48.878;18.040;2022-10-19T16:20:17;8.48;;;1.95;;
49296;SDS011;35163;48.878;18.040;2022-10-19T16:22:45;5.35;;;1.67;;
49296;SDS011;35163;48.878;18.040;2022-10-19T16:25:12;3.95;;;1.50;;
49296;SDS011;35163;48.878;18.040;2022-10-19T16:27:39;7.82;;;1.92;;
49296;SDS011;35163;48.878;18.040;2022-10-19T16:30:06;4.28;;;1.65;;
49296;SDS011;35163;48.878;18.040;2022-10-19T16:32:33;5.30;;;1.77;;
49296;SDS011;35163;48.878;18.040;2022-10-19T16:35:00;6.45;;;1.85;;
49296;SDS011;35163;48.878;18.040;2022-10-19T16:37:26;3.97;;;1.63;;
49296;SDS011;35163;48.878;18.040;2022-10-19T16:39:53;5.35;;;1.90;;
49296;SDS011;35163;48.878;18.040;2022-10-19T16:42:19;3.42;;;1.67;;
49296;SDS011;35163;48.878;18.040;2022-10-19T16:44:48;4.20;;;1.55;;
49296;SDS011;35163;48.878;18.040;2022-10-19T16:47:14;2.55;;;1.25;;
49296;SDS011;35163;48.878;18.040;2022-10-19T16:49:42;4.60;;;1.80;;
49296;SDS011;35163;48.878;18.040;2022-10-19T16:52:12;6.03;;;1.67;;
49296;SDS011;35163;48.878;18.040;2022-10-19T16:54:39;4.53;;;1.70;;
49296;SDS011;35163;48.878;18.040;2022-10-19T16:57:05;2.30;;;1.30;;
49296;SDS011;35163;48.878;18.040;2022-10-19T16:59:35;5.38;;;1.50;;
49296;SDS011;35163;48.878;18.040;2022-10-19T17:02:01;4.18;;;1.52;;
49296;SDS011;35163;48.878;18.040;2022-10-19T17:04:28;2.85;;;1.48;;
49296;SDS011;35163;48.878;18.040;2022-10-19T17:06:55;3.78;;;1.38;;
49296;SDS011;35163;48.878;18.040;2022-10-19T17:09:22;3.25;;;1.27;;
49296;SDS011;35163;48.878;18.040;2022-10-19T17:12:10;8.88;;;3.05;;
49296;SDS011;35163;48.878;18.040;2022-10-19T17:14:38;3.95;;;1.45;;
49296;SDS011;35163;48.878;18.040;2022-10-19T17:17:07;5.70;;;1.35;;
49296;SDS011;35163;48.878;18.040;2022-10-19T17:19:35;5.35;;;1.65;;
49296;SDS011;35163;48.878;18.040;2022-10-19T17:22:02;6.35;;;1.92;;
49296;SDS011;35163;48.878;18.040;2022-10-19T17:24:30;5.10;;;1.98;;
49296;SDS011;35163;48.878;18.040;2022-10-19T17:26:58;4.80;;;1.90;;